sensor_id;sensor_type;location;lat;lon;timestamp;pressure;altitude;pressure_sealevel;temperature;humidity
46007;BME280;31738;50.188;8.524;2023-02-22T00:02:18;98794.22;;;7.72;90.00
46007;BME280;31738;50.188;8.524;2023-02-22T00:04:54;98791.00;;;7.70;90.21
46007;BME280;31738;50.188;8.524;2023-02-22T00:07:36;98796.19;;;7.55;89.76
46007;BME280;31738;50.188;8.524;2023-02-22T00:10:23;98788.31;;;7.44;89.98
46007;BME280;31738;50.188;8.524;2023-02-22T00:12:50;98791.25;;;7.42;90.27
46007;BME280;31738;50.188;8.524;2023-02-22T00:15:27;98783.75;;;7.39;90.36
46007;BME280;31738;50.188;8.524;2023-02-22T00:21:35;98781.56;;;7.36;90.80
46007;BME280;31738;50.188;8.524;2023-02-22T00:24:02;98776.56;;;7.40;90.95
46007;BME280;31738;50.188;8.524;2023-02-22T00:26:54;98772.28;;;7.39;90.28
46007;BME280;31738;50.188;8.524;2023-02-22T00:29:21;98774.44;;;7.42;90.66
46007;BME280;31738;50.188;8.524;2023-02-22T00:31:52;98771.78;;;7.42;90.67
46007;BME280;31738;50.188;8.524;2023-02-22T00:34:34;98774.44;;;7.42;91.14
46007;BME280;31738;50.188;8.524;2023-02-22T00:37:20;98772.03;;;7.40;90.67
46007;BME280;31738;50.188;8.524;2023-02-22T00:40:03;98770.97;;;7.41;90.96
46007;BME280;31738;50.188;8.524;2023-02-22T00:42:32;98769.38;;;7.45;91.49
46007;BME280;31738;50.188;8.524;2023-02-22T00:44:58;98767.84;;;7.49;91.21
46007;BME280;31738;50.188;8.524;2023-02-22T00:47:32;98754.53;;;7.54;91.33
46007;BME280;31738;50.188;8.524;2023-02-22T00:50:12;98755.09;;;7.56;91.22
46007;BME280;31738;50.188;8.524;2023-02-22T00:52:40;98747.66;;;7.58;91.67
46007;BME280;31738;50.188;8.524;2023-02-22T00:55:27;98741.78;;;7.61;91.64
46007;BME280;31738;50.188;8.524;2023-02-22T00:57:53;98741.84;;;7.66;91.50
46007;BME280;31738;50.188;8.524;2023-02-22T01:00:27;98739.47;;;7.70;91.73
46007;BME280;31738;50.188;8.524;2023-02-22T01:02:54;98734.13;;;7.70;91.52
46007;BME280;31738;50.188;8.524;2023-02-22T01:05:31;98730.66;;;7.69;91.96
46007;BME280;31738;50.188;8.524;2023-02-22T01:08:07;98728.78;;;7.70;92.16
46007;BME280;31738;50.188;8.524;2023-02-22T01:10:36;98729.59;;;7.70;91.52
46007;BME280;31738;50.188;8.524;2023-02-22T01:13:06;98719.16;;;7.69;91.79
46007;BME280;31738;50.188;8.524;2023-02-22T01:15:38;98723.44;;;7.70;91.93
46007;BME280;31738;50.188;8.524;2023-02-22T01:18:08;98713.56;;;7.70;92.07
46007;BME280;31738;50.188;8.524;2023-02-22T01:21:02;98718.34;;;7.68;91.33
46007;BME280;31738;50.188;8.524;2023-02-22T01:23:29;98714.59;;;7.64;91.72
46007;BME280;31738;50.188;8.524;2023-02-22T01:26:04;98711.38;;;7.62;92.00
46007;BME280;31738;50.188;8.524;2023-02-22T01:32:48;98709.66;;;7.46;91.95
46007;BME280;31738;50.188;8.524;2023-02-22T01:35:18;98706.47;;;7.49;92.46
46007;BME280;31738;50.188;8.524;2023-02-22T01:40:46;98698.16;;;7.46;91.79
46007;BME280;31738;50.188;8.524;2023-02-22T01:43:20;98703.25;;;7.47;91.98
46007;BME280;31738;50.188;8.524;2023-02-22T01:49:46;98708.50;;;7.37;92.62
46007;BME280;31738;50.188;8.524;2023-02-22T01:52:19;98697.00;;;7.37;92.48
46007;BME280;31738;50.188;8.524;2023-02-22T01:54:58;98692.50;;;7.37;92.17
46007;BME280;31738;50.188;8.524;2023-02-22T01:57:34;98692.50;;;7.37;92.13
46007;BME280;31738;50.188;8.524;2023-02-22T02:00:12;98692.78;;;7.41;92.36
46007;BME280;31738;50.188;8.524;2023-02-22T02:02:55;98693.59;;;7.41;92.51
46007;BME280;31738;50.188;8.524;2023-02-22T02:05:41;98688.25;;;7.41;92.37
46007;BME280;31738;50.188;8.524;2023-02-22T02:08:32;98690.34;;;7.39;92.27
46007;BME280;31738;50.188;8.524;2023-02-22T02:11:03;98685.03;;;7.39;92.55
46007;BME280;31738;50.188;8.524;2023-02-22T02:13:33;98683.41;;;7.38;92.29
46007;BME280;31738;50.188;8.524;2023-02-22T02:16:06;98681.81;;;7.37;92.34
46007;BME280;31738;50.188;8.524;2023-02-22T02:19:02;98679.91;;;7.33;92.25
46007;BME280;31738;50.188;8.524;2023-02-22T02:21:46;98674.84;;;7.31;92.31
46007;BME280;31738;50.188;8.524;2023-02-22T02:24:54;98675.31;;;7.28;92.37
46007;BME280;31738;50.188;8.524;2023-02-22T02:28:04;98672.88;;;7.22;92.78
46007;BME280;31738;50.188;8.524;2023-02-22T02:42:41;98659.19;;;7.13;93.14
46007;BME280;31738;50.188;8.524;2023-02-22T02:45:18;98659.75;;;7.15;92.95
46007;BME280;31738;50.188;8.524;2023-02-22T02:47:53;98657.06;;;7.15;92.79
46007;BME280;31738;50.188;8.524;2023-02-22T02:50:33;98654.66;;;7.14;92.66
46007;BME280;31738;50.188;8.524;2023-02-22T02:56:10;98654.78;;;6.97;92.86
46007;BME280;31738;50.188;8.524;2023-02-22T02:58:47;98653.97;;;6.96;93.02
46007;BME280;31738;50.188;8.524;2023-02-22T03:01:21;98647.31;;;6.99;92.88
46007;BME280;31738;50.188;8.524;2023-02-22T03:09:23;98636.63;;;6.99;93.14
46007;BME280;31738;50.188;8.524;2023-02-22T03:14:47;98628.38;;;7.00;93.23
46007;BME280;31738;50.188;8.524;2023-02-22T03:17:59;98634.53;;;7.01;93.34
46007;BME280;31738;50.188;8.524;2023-02-22T03:20:33;98625.97;;;6.99;93.59
46007;BME280;31738;50.188;8.524;2023-02-22T03:23:12;98629.19;;;7.01;93.54
46007;BME280;31738;50.188;8.524;2023-02-22T03:25:44;98627.09;;;7.03;93.70
46007;BME280;31738;50.188;8.524;2023-02-22T03:28:14;98618.03;;;7.04;93.65
46007;BME280;31738;50.188;8.524;2023-02-22T03:30:48;98614.31;;;7.05;93.55
46007;BME280;31738;50.188;8.524;2023-02-22T03:33:17;98619.50;;;6.90;93.63
46007;BME280;31738;50.188;8.524;2023-02-22T03:35:49;98614.97;;;6.90;93.66
46007;BME280;31738;50.188;8.524;2023-02-22T03:38:22;98612.63;;;6.94;93.59
46007;BME280;31738;50.188;8.524;2023-02-22T03:40:51;98614.78;;;6.97;93.89
46007;BME280;31738;50.188;8.524;2023-02-22T03:43:24;98613.72;;;6.98;93.83
46007;BME280;31738;50.188;8.524;2023-02-22T03:45:55;98608.38;;;6.98;93.71
46007;BME280;31738;50.188;8.524;2023-02-22T03:48:31;98606.53;;;6.98;93.51
46007;BME280;31738;50.188;8.524;2023-02-22T03:51:01;98606.28;;;7.00;93.88
46007;BME280;31738;50.188;8.524;2023-02-22T03:53:47;98600.94;;;7.00;93.97
46007;BME280;31738;50.188;8.524;2023-02-22T03:56:18;98597.22;;;7.01;94.20
46007;BME280;31738;50.188;8.524;2023-02-22T03:58:50;98601.25;;;7.04;93.82
46007;BME280;31738;50.188;8.524;2023-02-22T04:01:26;98598.81;;;7.02;94.08
46007;BME280;31738;50.188;8.524;2023-02-22T04:03:51;98595.09;;;7.03;94.30
46007;BME280;31738;50.188;8.524;2023-02-22T04:06:20;98594.03;;;7.04;94.22
46007;BME280;31738;50.188;8.524;2023-02-22T04:08:46;98599.13;;;7.06;94.35
46007;BME280;31738;50.188;8.524;2023-02-22T04:11:12;98597.25;;;7.06;94.17
46007;BME280;31738;50.188;8.524;2023-02-22T04:13:47;98593.53;;;7.07;94.04
46007;BME280;31738;50.188;8.524;2023-02-22T04:16:19;98595.41;;;7.07;94.17
46007;BME280;31738;50.188;8.524;2023-02-22T04:18:44;98596.44;;;7.06;94.12
46007;BME280;31738;50.188;8.524;2023-02-22T04:21:31;98591.94;;;7.06;94.44
46007;BME280;31738;50.188;8.524;2023-02-22T04:24:07;98589.78;;;7.03;94.40
46007;BME280;31738;50.188;8.524;2023-02-22T04:26:34;98590.81;;;7.02;94.24
46007;BME280;31738;50.188;8.524;2023-02-22T04:29:04;98588.66;;;6.99;94.55
46007;BME280;31738;50.188;8.524;2023-02-22T04:31:42;98580.91;;;6.97;94.37
46007;BME280;31738;50.188;8.524;2023-02-22T04:34:16;98577.97;;;6.99;94.53
46007;BME280;31738;50.188;8.524;2023-02-22T04:36:46;98573.97;;;6.96;94.31
46007;BME280;31738;50.188;8.524;2023-02-22T04:39:16;98579.31;;;6.96;94.74
46007;BME280;31738;50.188;8.524;2023-02-22T04:41:43;98580.13;;;6.97;94.70
46007;BME280;31738;50.188;8.524;2023-02-22T04:44:19;98589.16;;;6.96;94.18
46007;BME280;31738;50.188;8.524;2023-02-22T04:46:52;98582.22;;;6.95;94.34
46007;BME280;31738;50.188;8.524;2023-02-22T04:49:18;98580.06;;;6.92;94.68
46007;BME280;31738;50.188;8.524;2023-02-22T04:51:59;98584.84;;;6.90;94.66
46007;BME280;31738;50.188;8.524;2023-02-22T04:54:37;98583.75;;;6.86;94.19
46007;BME280;31738;50.188;8.524;2023-02-22T04:57:03;98577.84;;;6.84;94.36
46007;BME280;31738;50.188;8.524;2023-02-22T04:59:28;98580.53;;;6.84;94.57
46007;BME280;31738;50.188;8.524;2023-02-22T05:02:03;98578.66;;;6.84;94.72
46007;BME280;31738;50.188;8.524;2023-02-22T05:04:32;98575.19;;;6.84;94.82
46007;BME280;31738;50.188;8.524;2023-02-22T05:07:03;98568.25;;;6.83;94.27
46007;BME280;31738;50.188;8.524;2023-02-22T05:09:50;98572.50;;;6.79;94.50
46007;BME280;31738;50.188;8.524;2023-02-22T05:12:16;98564.50;;;6.79;94.29
46007;BME280;31738;50.188;8.524;2023-02-22T05:14:41;98573.00;;;6.76;94.39
46007;BME280;31738;50.188;8.524;2023-02-22T05:17:36;98565.47;;;6.73;94.43
46007;BME280;31738;50.188;8.524;2023-02-22T05:24:35;98559.50;;;6.61;94.57
46007;BME280;31738;50.188;8.524;2023-02-22T05:27:18;98558.47;;;6.62;94.66
46007;BME280;31738;50.188;8.524;2023-02-22T05:29:44;98551.00;;;6.64;94.73
46007;BME280;31738;50.188;8.524;2023-02-22T05:32:13;98561.97;;;6.67;94.80
46007;BME280;31738;50.188;8.524;2023-02-22T05:34:41;98549.97;;;6.65;94.62
46007;BME280;31738;50.188;8.524;2023-02-22T05:37:06;98554.25;;;6.66;94.44
46007;BME280;31738;50.188;8.524;2023-02-22T05:39:32;98561.66;;;6.64;94.51
46007;BME280;31738;50.188;8.524;2023-02-22T05:41:57;98559.00;;;6.64;94.36
46007;BME280;31738;50.188;8.524;2023-02-22T05:44:25;98552.91;;;6.63;95.02
46007;BME280;31738;50.188;8.524;2023-02-22T05:46:55;98553.69;;;6.64;94.77
46007;BME280;31738;50.188;8.524;2023-02-22T05:49:45;98546.50;;;6.64;94.94
46007;BME280;31738;50.188;8.524;2023-02-22T05:55:30;98543.00;;;6.59;94.90
46007;BME280;31738;50.188;8.524;2023-02-22T05:57:57;98536.59;;;6.60;94.78
46007;BME280;31738;50.188;8.524;2023-02-22T06:00:28;98543.53;;;6.61;94.89
46007;BME280;31738;50.188;8.524;2023-02-22T06:03:09;98536.59;;;6.60;95.12
46007;BME280;31738;50.188;8.524;2023-02-22T06:05:58;98547.25;;;6.60;94.79
46007;BME280;31738;50.188;8.524;2023-02-22T06:09:00;98543.50;;;6.56;94.74
46007;BME280;31738;50.188;8.524;2023-02-22T06:15:19;98543.44;;;6.51;95.39
46007;BME280;31738;50.188;8.524;2023-02-22T06:17:50;98549.34;;;6.53;94.97
46007;BME280;31738;50.188;8.524;2023-02-22T06:20:21;98549.88;;;6.55;95.02
46007;BME280;31738;50.188;8.524;2023-02-22T06:22:50;98551.75;;;6.54;95.29
46007;BME280;31738;50.188;8.524;2023-02-22T06:25:24;98547.19;;;6.55;95.12
46007;BME280;31738;50.188;8.524;2023-02-22T06:27:51;98542.13;;;6.53;94.81
46007;BME280;31738;50.188;8.524;2023-02-22T06:30:40;98541.59;;;6.51;95.13
46007;BME280;31738;50.188;8.524;2023-02-22T06:33:09;98544.25;;;6.51;94.83
46007;BME280;31738;50.188;8.524;2023-02-22T06:35:35;98547.44;;;6.53;95.18
46007;BME280;31738;50.188;8.524;2023-02-22T06:38:01;98549.34;;;6.53;95.35
46007;BME280;31738;50.188;8.524;2023-02-22T06:40:27;98545.84;;;6.52;95.06
46007;BME280;31738;50.188;8.524;2023-02-22T06:42:56;98550.94;;;6.54;95.23
46007;BME280;31738;50.188;8.524;2023-02-22T06:45:50;98553.59;;;6.54;95.01
46007;BME280;31738;50.188;8.524;2023-02-22T06:48:15;98551.75;;;6.54;95.50
46007;BME280;31738;50.188;8.524;2023-02-22T06:50:41;98555.75;;;6.57;94.96
46007;BME280;31738;50.188;8.524;2023-02-22T06:53:07;98556.31;;;6.59;95.25
46007;BME280;31738;50.188;8.524;2023-02-22T06:55:34;98549.66;;;6.61;95.44
46007;BME280;31738;50.188;8.524;2023-02-22T06:58:01;98558.22;;;6.63;95.59
46007;BME280;31738;50.188;8.524;2023-02-22T07:00:31;98554.75;;;6.63;95.58
46007;BME280;31738;50.188;8.524;2023-02-22T07:02:57;98561.41;;;6.65;95.72
46007;BME280;31738;50.188;8.524;2023-02-22T07:05:24;98559.31;;;6.67;95.31
46007;BME280;31738;50.188;8.524;2023-02-22T07:07:52;98561.47;;;6.70;95.34
46007;BME280;31738;50.188;8.524;2023-02-22T07:10:23;98565.22;;;6.74;95.42
46007;BME280;31738;50.188;8.524;2023-02-22T07:12:48;98565.00;;;6.76;95.20
46007;BME280;31738;50.188;8.524;2023-02-22T07:15:17;98567.16;;;6.79;95.45
46007;BME280;31738;50.188;8.524;2023-02-22T07:17:43;98569.31;;;6.82;95.92
46007;BME280;31738;50.188;8.524;2023-02-22T07:20:09;98562.41;;;6.86;95.40
46007;BME280;31738;50.188;8.524;2023-02-22T07:22:37;98568.31;;;6.88;95.59
46007;BME280;31738;50.188;8.524;2023-02-22T07:25:05;98572.06;;;6.92;95.38
46007;BME280;31738;50.188;8.524;2023-02-22T07:27:31;98559.31;;;6.94;95.38
46007;BME280;31738;50.188;8.524;2023-02-22T07:30:29;98563.31;;;6.96;95.31
46007;BME280;31738;50.188;8.524;2023-02-22T07:32:57;98572.66;;;6.99;95.95
46007;BME280;31738;50.188;8.524;2023-02-22T07:35:49;98570.03;;;7.04;95.43
46007;BME280;31738;50.188;8.524;2023-02-22T07:38:17;98575.66;;;7.08;95.39
46007;BME280;31738;50.188;8.524;2023-02-22T07:40:43;98568.50;;;7.13;95.65
46007;BME280;31738;50.188;8.524;2023-02-22T07:45:42;98575.28;;;7.26;95.64
46007;BME280;31738;50.188;8.524;2023-02-22T07:48:08;98572.41;;;7.32;95.92
46007;BME280;31738;50.188;8.524;2023-02-22T07:50:38;98571.94;;;7.40;96.03
46007;BME280;31738;50.188;8.524;2023-02-22T07:53:27;98573.03;;;7.49;96.23
46007;BME280;31738;50.188;8.524;2023-02-22T07:59:18;98569.91;;;7.62;96.02
46007;BME280;31738;50.188;8.524;2023-02-22T08:01:48;98579.06;;;7.76;96.66
46007;BME280;31738;50.188;8.524;2023-02-22T08:04:14;98570.88;;;7.88;96.85
46007;BME280;31738;50.188;8.524;2023-02-22T08:06:40;98564.22;;;8.00;97.18
46007;BME280;31738;50.188;8.524;2023-02-22T08:09:05;98562.16;;;8.12;96.83
46007;BME280;31738;50.188;8.524;2023-02-22T08:11:31;98565.94;;;8.21;97.20
46007;BME280;31738;50.188;8.524;2023-02-22T08:17:01;98554.53;;;8.41;96.64
46007;BME280;31738;50.188;8.524;2023-02-22T08:19:29;98551.88;;;8.51;96.98
46007;BME280;31738;50.188;8.524;2023-02-22T08:21:55;98552.94;;;8.60;97.68
46007;BME280;31738;50.188;8.524;2023-02-22T08:24:23;98546.81;;;8.69;97.78
46007;BME280;31738;50.188;8.524;2023-02-22T08:26:49;98553.81;;;8.81;97.41
46007;BME280;31738;50.188;8.524;2023-02-22T08:29:16;98545.25;;;8.89;97.83
46007;BME280;31738;50.188;8.524;2023-02-22T08:31:41;98550.59;;;8.99;97.93
46007;BME280;31738;50.188;8.524;2023-02-22T08:34:07;98546.06;;;9.04;97.56
46007;BME280;31738;50.188;8.524;2023-02-22T08:36:32;98545.78;;;9.16;97.66
46007;BME280;31738;50.188;8.524;2023-02-22T08:38:58;98546.56;;;9.26;97.79
46007;BME280;31738;50.188;8.524;2023-02-22T08:41:29;98550.84;;;9.32;97.34
46007;BME280;31738;50.188;8.524;2023-02-22T08:43:54;98541.50;;;9.35;97.65
46007;BME280;31738;50.188;8.524;2023-02-22T08:46:20;98549.50;;;9.40;97.60
46007;BME280;31738;50.188;8.524;2023-02-22T08:48:49;98546.81;;;9.45;97.64
46007;BME280;31738;50.188;8.524;2023-02-22T08:51:15;98543.06;;;9.51;97.38
46007;BME280;31738;50.188;8.524;2023-02-22T08:56:41;98547.59;;;9.55;96.98
46007;BME280;31738;50.188;8.524;2023-02-22T08:59:07;98545.47;;;9.62;97.44
46007;BME280;31738;50.188;8.524;2023-02-22T09:01:35;98550.28;;;9.65;97.11
46007;BME280;31738;50.188;8.524;2023-02-22T09:04:01;98559.63;;;9.68;97.20
46007;BME280;31738;50.188;8.524;2023-02-22T09:06:39;98554.25;;;9.78;96.97
46007;BME280;31738;50.188;8.524;2023-02-22T09:09:05;98554.75;;;9.85;96.90
46007;BME280;31738;50.188;8.524;2023-02-22T09:11:30;98564.94;;;9.88;96.17
46007;BME280;31738;50.188;8.524;2023-02-22T09:14:23;98556.63;;;9.89;96.46
46007;BME280;31738;50.188;8.524;2023-02-22T09:16:49;98552.41;;;9.73;96.31
46007;BME280;31738;50.188;8.524;2023-02-22T09:19:14;98551.00;;;9.86;95.84
46007;BME280;31738;50.188;8.524;2023-02-22T09:21:40;98551.75;;;9.96;95.70
46007;BME280;31738;50.188;8.524;2023-02-22T09:24:13;98553.88;;;10.04;95.37
46007;BME280;31738;50.188;8.524;2023-02-22T09:26:38;98550.41;;;10.09;95.37
46007;BME280;31738;50.188;8.524;2023-02-22T09:29:05;98547.72;;;10.14;95.24
46007;BME280;31738;50.188;8.524;2023-02-22T09:31:35;98548.22;;;10.21;94.71
46007;BME280;31738;50.188;8.524;2023-02-22T09:34:03;98549.81;;;10.27;94.83
46007;BME280;31738;50.188;8.524;2023-02-22T09:36:31;98544.41;;;10.32;94.62
46007;BME280;31738;50.188;8.524;2023-02-22T09:38:56;98550.28;;;10.39;94.45
46007;BME280;31738;50.188;8.524;2023-02-22T09:41:32;98548.84;;;10.52;94.15
46007;BME280;31738;50.188;8.524;2023-02-22T09:44:13;98540.50;;;10.58;93.61
46007;BME280;31738;50.188;8.524;2023-02-22T09:46:44;98559.28;;;10.58;93.19
46007;BME280;31738;50.188;8.524;2023-02-22T09:49:20;98550.66;;;10.66;92.99
46007;BME280;31738;50.188;8.524;2023-02-22T09:57:06;98547.88;;;10.81;92.41
46007;BME280;31738;50.188;8.524;2023-02-22T09:59:58;98554.84;;;10.82;92.10
46007;BME280;31738;50.188;8.524;2023-02-22T10:02:29;98566.09;;;10.79;92.22
46007;BME280;31738;50.188;8.524;2023-02-22T10:05:16;98562.63;;;10.84;91.43
46007;BME280;31738;50.188;8.524;2023-02-22T10:07:54;98563.97;;;10.81;91.32
46007;BME280;31738;50.188;8.524;2023-02-22T10:10:23;98567.19;;;10.83;91.21
46007;BME280;31738;50.188;8.524;2023-02-22T10:12:57;98568.72;;;10.94;90.85
46007;BME280;31738;50.188;8.524;2023-02-22T10:15:33;98572.69;;;11.02;90.57
46007;BME280;31738;50.188;8.524;2023-02-22T10:20:53;98579.91;;;11.01;89.92
46007;BME280;31738;50.188;8.524;2023-02-22T10:26:33;98585.09;;;10.93;90.17
46007;BME280;31738;50.188;8.524;2023-02-22T10:29:31;98578.06;;;10.97;90.21
46007;BME280;31738;50.188;8.524;2023-02-22T10:35:54;98590.66;;;11.01;89.85
46007;BME280;31738;50.188;8.524;2023-02-22T10:38:28;98589.66;;;10.92;89.06
46007;BME280;31738;50.188;8.524;2023-02-22T10:43:39;98595.69;;;10.74;90.06
46007;BME280;31738;50.188;8.524;2023-02-22T10:46:08;98592.41;;;10.82;89.91
46007;BME280;31738;50.188;8.524;2023-02-22T10:48:38;98588.09;;;10.86;89.41
46007;BME280;31738;50.188;8.524;2023-02-22T10:51:07;98587.78;;;10.93;89.35
46007;BME280;31738;50.188;8.524;2023-02-22T10:53:34;98594.47;;;10.90;88.78
46007;BME280;31738;50.188;8.524;2023-02-22T10:56:20;98592.88;;;10.89;88.80
46007;BME280;31738;50.188;8.524;2023-02-22T10:58:58;98581.84;;;10.96;89.02
46007;BME280;31738;50.188;8.524;2023-02-22T11:04:15;98582.06;;;11.33;87.68
46007;BME280;31738;50.188;8.524;2023-02-22T11:06:45;98581.75;;;11.39;88.34
46007;BME280;31738;50.188;8.524;2023-02-22T11:09:20;98576.25;;;11.54;87.92
46007;BME280;31738;50.188;8.524;2023-02-22T11:11:47;98582.13;;;11.56;87.59
46007;BME280;31738;50.188;8.524;2023-02-22T11:14:25;98585.09;;;11.55;87.71
46007;BME280;31738;50.188;8.524;2023-02-22T11:16:55;98588.53;;;11.60;87.01
46007;BME280;31738;50.188;8.524;2023-02-22T11:19:25;98584.78;;;11.61;87.04
46007;BME280;31738;50.188;8.524;2023-02-22T11:21:57;98585.34;;;11.63;86.77
46007;BME280;31738;50.188;8.524;2023-02-22T11:24:24;98581.84;;;11.63;86.25
46007;BME280;31738;50.188;8.524;2023-02-22T11:27:00;98586.66;;;11.66;85.97
46007;BME280;31738;50.188;8.524;2023-02-22T11:29:34;98589.25;;;11.42;85.46
46007;BME280;31738;50.188;8.524;2023-02-22T11:32:09;98590.88;;;11.43;86.41
46007;BME280;31738;50.188;8.524;2023-02-22T11:34:38;98591.38;;;11.45;86.27
46007;BME280;31738;50.188;8.524;2023-02-22T11:39:40;98574.94;;;11.52;86.32
46007;BME280;31738;50.188;8.524;2023-02-22T11:42:27;98574.03;;;11.66;86.26
46007;BME280;31738;50.188;8.524;2023-02-22T11:45:22;98573.38;;;11.74;85.87
46007;BME280;31738;50.188;8.524;2023-02-22T11:48:00;98574.03;;;11.66;85.29
46007;BME280;31738;50.188;8.524;2023-02-22T11:50:44;98572.38;;;11.70;85.25
46007;BME280;31738;50.188;8.524;2023-02-22T11:53:46;98570.78;;;11.69;84.70
46007;BME280;31738;50.188;8.524;2023-02-22T11:56:21;98573.19;;;11.71;84.72
46007;BME280;31738;50.188;8.524;2023-02-22T12:01:42;98565.72;;;11.86;83.66
46007;BME280;31738;50.188;8.524;2023-02-22T12:07:36;98573.75;;;11.91;83.76
46007;BME280;31738;50.188;8.524;2023-02-22T12:13:22;98570.03;;;12.11;82.93
46007;BME280;31738;50.188;8.524;2023-02-22T12:21:23;98586.72;;;12.32;80.20
46007;BME280;31738;50.188;8.524;2023-02-22T12:24:05;98586.09;;;12.40;79.91
46007;BME280;31738;50.188;8.524;2023-02-22T12:26:41;98597.88;;;12.44;78.89
46007;BME280;31738;50.188;8.524;2023-02-22T12:29:14;98601.31;;;12.49;78.70
46007;BME280;31738;50.188;8.524;2023-02-22T12:31:51;98596.13;;;12.53;78.66
46007;BME280;31738;50.188;8.524;2023-02-22T12:34:29;98600.44;;;12.54;78.01
46007;BME280;31738;50.188;8.524;2023-02-22T12:37:15;98602.03;;;12.55;77.66
46007;BME280;31738;50.188;8.524;2023-02-22T12:42:26;98610.09;;;12.55;77.12
46007;BME280;31738;50.188;8.524;2023-02-22T12:45:07;98600.16;;;12.55;76.63
46007;BME280;31738;50.188;8.524;2023-02-22T12:47:41;98620.28;;;12.58;76.10
46007;BME280;31738;50.188;8.524;2023-02-22T12:52:58;98623.13;;;12.66;75.14
46007;BME280;31738;50.188;8.524;2023-02-22T12:55:32;98620.22;;;12.63;75.16
46007;BME280;31738;50.188;8.524;2023-02-22T13:00:59;98626.09;;;12.65;75.59
46007;BME280;31738;50.188;8.524;2023-02-22T13:03:36;98629.19;;;12.77;73.51
46007;BME280;31738;50.188;8.524;2023-02-22T13:15:06;98627.94;;;12.69;74.14
46007;BME280;31738;50.188;8.524;2023-02-22T13:20:25;98616.81;;;12.76;74.73
46007;BME280;31738;50.188;8.524;2023-02-22T13:29:20;98603.88;;;12.96;74.22
46007;BME280;31738;50.188;8.524;2023-02-22T13:31:59;98605.97;;;12.99;74.50
46007;BME280;31738;50.188;8.524;2023-02-22T13:37:34;98605.19;;;12.99;73.44
46007;BME280;31738;50.188;8.524;2023-02-22T13:43:31;98612.97;;;12.82;72.41
46007;BME280;31738;50.188;8.524;2023-02-22T13:51:50;98599.16;;;12.88;73.23
46007;BME280;31738;50.188;8.524;2023-02-22T13:54:21;98598.44;;;12.83;73.36
46007;BME280;31738;50.188;8.524;2023-02-22T13:56:50;98593.03;;;12.83;73.55
46007;BME280;31738;50.188;8.524;2023-02-22T13:59:36;98592.94;;;12.88;73.33
46007;BME280;31738;50.188;8.524;2023-02-22T14:02:04;98601.31;;;12.86;73.03
46007;BME280;31738;50.188;8.524;2023-02-22T14:04:39;98605.81;;;12.91;73.34
46007;BME280;31738;50.188;8.524;2023-02-22T14:09:50;98584.81;;;12.93;74.12
46007;BME280;31738;50.188;8.524;2023-02-22T14:17:35;98574.03;;;12.93;74.65
46007;BME280;31738;50.188;8.524;2023-02-22T14:23:28;98574.03;;;12.93;74.22
46007;BME280;31738;50.188;8.524;2023-02-22T14:25:56;98581.59;;;12.91;74.29
46007;BME280;31738;50.188;8.524;2023-02-22T14:31:10;98580.44;;;12.97;74.46
46007;BME280;31738;50.188;8.524;2023-02-22T14:34:01;98569.66;;;12.97;74.18
46007;BME280;31738;50.188;8.524;2023-02-22T14:36:32;98577.25;;;12.95;73.10
46007;BME280;31738;50.188;8.524;2023-02-22T14:39:18;98569.47;;;12.93;72.79
46007;BME280;31738;50.188;8.524;2023-02-22T14:55:50;98573.63;;;12.86;73.78
46007;BME280;31738;50.188;8.524;2023-02-22T14:58:24;98568.22;;;12.86;72.99
46007;BME280;31738;50.188;8.524;2023-02-22T15:00:52;98564.44;;;12.87;73.63
46007;BME280;31738;50.188;8.524;2023-02-22T15:05:46;98561.47;;;12.88;73.54
46007;BME280;31738;50.188;8.524;2023-02-22T15:08:15;98561.16;;;12.90;74.03
46007;BME280;31738;50.188;8.524;2023-02-22T15:10:47;98558.47;;;12.90;73.24
46007;BME280;31738;50.188;8.524;2023-02-22T15:13:16;98558.47;;;12.90;73.83
46007;BME280;31738;50.188;8.524;2023-02-22T15:15:45;98550.97;;;12.87;73.43
46007;BME280;31738;50.188;8.524;2023-02-22T15:20:50;98566.41;;;12.81;73.65
46007;BME280;31738;50.188;8.524;2023-02-22T15:23:23;98560.53;;;12.79;74.00
46007;BME280;31738;50.188;8.524;2023-02-22T15:25:49;98570.47;;;12.79;74.02
46007;BME280;31738;50.188;8.524;2023-02-22T15:28:17;98564.03;;;12.80;73.78
46007;BME280;31738;50.188;8.524;2023-02-22T15:30:43;98557.25;;;12.82;73.51
46007;BME280;31738;50.188;8.524;2023-02-22T15:33:14;98567.19;;;12.82;73.74
46007;BME280;31738;50.188;8.524;2023-02-22T15:35:40;98554.03;;;12.80;74.26
46007;BME280;31738;50.188;8.524;2023-02-22T15:38:18;98559.63;;;12.84;74.32
46007;BME280;31738;50.188;8.524;2023-02-22T15:40:44;98559.41;;;12.80;74.72
46007;BME280;31738;50.188;8.524;2023-02-22T15:43:23;98552.97;;;12.81;74.89
46007;BME280;31738;50.188;8.524;2023-02-22T15:45:49;98554.31;;;12.79;74.84
46007;BME280;31738;50.188;8.524;2023-02-22T15:48:15;98557.59;;;12.76;75.02
46007;BME280;31738;50.188;8.524;2023-02-22T15:50:59;98555.50;;;12.73;74.96
46007;BME280;31738;50.188;8.524;2023-02-22T15:53:36;98557.75;;;12.66;75.48
46007;BME280;31738;50.188;8.524;2023-02-22T15:56:09;98552.97;;;12.63;75.54
46007;BME280;31738;50.188;8.524;2023-02-22T15:58:35;98558.91;;;12.60;75.46
46007;BME280;31738;50.188;8.524;2023-02-22T16:01:04;98550.34;;;12.58;75.37
46007;BME280;31738;50.188;8.524;2023-02-22T16:03:44;98548.22;;;12.55;75.21
46007;BME280;31738;50.188;8.524;2023-02-22T16:08:48;98552.06;;;12.49;75.26
46007;BME280;31738;50.188;8.524;2023-02-22T16:11:25;98558.56;;;12.48;75.16
46007;BME280;31738;50.188;8.524;2023-02-22T16:13:58;98552.41;;;12.42;75.30
46007;BME280;31738;50.188;8.524;2023-02-22T16:16:32;98541.44;;;12.39;75.48
46007;BME280;31738;50.188;8.524;2023-02-22T16:21:50;98542.09;;;12.31;76.04
46007;BME280;31738;50.188;8.524;2023-02-22T16:24:31;98545.84;;;12.30;75.67
46007;BME280;31738;50.188;8.524;2023-02-22T16:27:16;98546.06;;;12.15;76.35
46007;BME280;31738;50.188;8.524;2023-02-22T16:29:43;98555.31;;;12.03;76.43
46007;BME280;31738;50.188;8.524;2023-02-22T16:32:09;98554.25;;;12.04;76.13
46007;BME280;31738;50.188;8.524;2023-02-22T16:34:35;98555.31;;;12.03;76.13
46007;BME280;31738;50.188;8.524;2023-02-22T16:37:01;98552.16;;;12.01;76.36